sensor_id;sensor_type;location;lat;lon;timestamp;P1;durP1;ratioP1;P2;durP2;ratioP2
25950;SDS011;13748;52.240;6.002;2023-05-18T00:01:20;5.47;;;3.50;;
25950;SDS011;13748;52.240;6.002;2023-05-18T00:03:47;5.60;;;3.20;;
25950;SDS011;13748;52.240;6.002;2023-05-18T00:06:14;8.23;;;3.33;;
25950;SDS011;13748;52.240;6.002;2023-05-18T00:08:41;10.20;;;3.50;;
25950;SDS011;13748;52.240;6.002;2023-05-18T00:11:08;5.43;;;2.80;;
25950;SDS011;13748;52.240;6.002;2023-05-18T00:13:34;6.47;;;3.07;;
25950;SDS011;13748;52.240;6.002;2023-05-18T00:16:01;6.87;;;3.30;;
25950;SDS011;13748;52.240;6.002;2023-05-18T00:18:28;9.37;;;3.23;;
25950;SDS011;13748;52.240;6.002;2023-05-18T00:20:55;6.10;;;3.20;;
25950;SDS011;13748;52.240;6.002;2023-05-18T00:23:28;8.13;;;3.73;;
25950;SDS011;13748;52.240;6.002;2023-05-18T00:25:56;5.17;;;3.80;;
25950;SDS011;13748;52.240;6.002;2023-05-18T00:28:27;6.43;;;3.80;;
25950;SDS011;13748;52.240;6.002;2023-05-18T00:30:54;9.57;;;3.47;;
25950;SDS011;13748;52.240;6.002;2023-05-18T00:33:22;9.97;;;4.30;;
25950;SDS011;13748;52.240;6.002;2023-05-18T00:35:49;7.40;;;3.40;;
25950;SDS011;13748;52.240;6.002;2023-05-18T00:38:16;7.13;;;3.47;;
25950;SDS011;13748;52.240;6.002;2023-05-18T00:40:43;5.90;;;3.63;;
25950;SDS011;13748;52.240;6.002;2023-05-18T00:43:09;6.57;;;3.50;;
25950;SDS011;13748;52.240;6.002;2023-05-18T00:45:36;6.53;;;3.60;;
25950;SDS011;13748;52.240;6.002;2023-05-18T00:48:04;7.87;;;3.27;;
25950;SDS011;13748;52.240;6.002;2023-05-18T00:50:31;8.80;;;3.70;;
25950;SDS011;13748;52.240;6.002;2023-05-18T00:52:58;9.20;;;3.60;;
25950;SDS011;13748;52.240;6.002;2023-05-18T00:55:25;7.37;;;3.23;;
25950;SDS011;13748;52.240;6.002;2023-05-18T00:57:54;8.20;;;3.20;;
25950;SDS011;13748;52.240;6.002;2023-05-18T01:00:22;9.23;;;3.40;;
25950;SDS011;13748;52.240;6.002;2023-05-18T01:02:49;6.03;;;3.37;;
25950;SDS011;13748;52.240;6.002;2023-05-18T01:05:18;9.23;;;3.67;;
25950;SDS011;13748;52.240;6.002;2023-05-18T01:07:47;6.13;;;3.60;;
25950;SDS011;13748;52.240;6.002;2023-05-18T01:10:16;7.43;;;3.50;;
25950;SDS011;13748;52.240;6.002;2023-05-18T01:12:47;5.37;;;3.23;;
25950;SDS011;13748;52.240;6.002;2023-05-18T01:15:31;7.80;;;3.30;;
25950;SDS011;13748;52.240;6.002;2023-05-18T01:18:08;6.00;;;3.30;;
25950;SDS011;13748;52.240;6.002;2023-05-18T01:26:24;4.60;;;3.27;;
25950;SDS011;13748;52.240;6.002;2023-05-18T01:28:57;8.23;;;3.77;;
25950;SDS011;13748;52.240;6.002;2023-05-18T01:31:25;6.83;;;3.27;;
25950;SDS011;13748;52.240;6.002;2023-05-18T01:33:53;9.20;;;3.47;;
25950;SDS011;13748;52.240;6.002;2023-05-18T01:36:19;5.40;;;3.10;;
25950;SDS011;13748;52.240;6.002;2023-05-18T01:38:46;7.30;;;3.83;;
25950;SDS011;13748;52.240;6.002;2023-05-18T01:41:17;4.73;;;3.03;;
25950;SDS011;13748;52.240;6.002;2023-05-18T01:55:07;7.47;;;3.87;;
25950;SDS011;13748;52.240;6.002;2023-05-18T01:57:36;6.83;;;3.27;;
25950;SDS011;13748;52.240;6.002;2023-05-18T02:00:04;9.47;;;3.83;;
25950;SDS011;13748;52.240;6.002;2023-05-18T02:02:34;7.17;;;3.63;;
25950;SDS011;13748;52.240;6.002;2023-05-18T02:05:01;8.87;;;3.87;;
25950;SDS011;13748;52.240;6.002;2023-05-18T02:07:30;10.07;;;3.73;;
25950;SDS011;13748;52.240;6.002;2023-05-18T02:09:57;6.87;;;3.50;;
25950;SDS011;13748;52.240;6.002;2023-05-18T02:12:24;8.07;;;4.10;;
25950;SDS011;13748;52.240;6.002;2023-05-18T02:14:51;7.60;;;4.17;;
25950;SDS011;13748;52.240;6.002;2023-05-18T02:17:17;6.03;;;3.43;;
25950;SDS011;13748;52.240;6.002;2023-05-18T02:19:46;8.73;;;3.90;;
25950;SDS011;13748;52.240;6.002;2023-05-18T02:22:13;10.23;;;4.23;;
25950;SDS011;13748;52.240;6.002;2023-05-18T02:24:40;7.90;;;3.63;;
25950;SDS011;13748;52.240;6.002;2023-05-18T02:27:08;8.13;;;3.97;;
25950;SDS011;13748;52.240;6.002;2023-05-18T02:29:35;6.03;;;3.67;;
25950;SDS011;13748;52.240;6.002;2023-05-18T02:32:03;5.07;;;2.90;;
25950;SDS011;13748;52.240;6.002;2023-05-18T02:34:31;5.17;;;3.30;;
25950;SDS011;13748;52.240;6.002;2023-05-18T02:36:58;5.53;;;3.67;;
25950;SDS011;13748;52.240;6.002;2023-05-18T02:39:29;12.83;;;3.83;;
25950;SDS011;13748;52.240;6.002;2023-05-18T02:41:56;8.80;;;3.90;;
25950;SDS011;13748;52.240;6.002;2023-05-18T02:44:24;5.27;;;3.70;;
25950;SDS011;13748;52.240;6.002;2023-05-18T02:46:51;5.47;;;3.50;;
25950;SDS011;13748;52.240;6.002;2023-05-18T02:49:18;9.17;;;4.07;;
25950;SDS011;13748;52.240;6.002;2023-05-18T02:51:45;6.87;;;3.57;;
25950;SDS011;13748;52.240;6.002;2023-05-18T02:54:12;7.40;;;3.90;;
25950;SDS011;13748;52.240;6.002;2023-05-18T02:56:38;6.40;;;4.00;;
25950;SDS011;13748;52.240;6.002;2023-05-18T02:59:06;7.77;;;3.93;;
25950;SDS011;13748;52.240;6.002;2023-05-18T03:01:34;5.13;;;3.47;;
25950;SDS011;13748;52.240;6.002;2023-05-18T03:04:02;9.80;;;3.63;;
25950;SDS011;13748;52.240;6.002;2023-05-18T03:06:29;8.17;;;3.83;;
25950;SDS011;13748;52.240;6.002;2023-05-18T03:08:57;5.00;;;3.70;;
25950;SDS011;13748;52.240;6.002;2023-05-18T03:11:24;7.87;;;3.97;;
25950;SDS011;13748;52.240;6.002;2023-05-18T03:13:53;6.20;;;3.63;;
25950;SDS011;13748;52.240;6.002;2023-05-18T03:16:20;7.53;;;3.37;;
25950;SDS011;13748;52.240;6.002;2023-05-18T03:18:54;10.30;;;3.90;;
25950;SDS011;13748;52.240;6.002;2023-05-18T03:21:24;6.50;;;3.40;;
25950;SDS011;13748;52.240;6.002;2023-05-18T03:23:58;10.13;;;4.10;;
25950;SDS011;13748;52.240;6.002;2023-05-18T03:26:25;8.67;;;3.40;;
25950;SDS011;13748;52.240;6.002;2023-05-18T03:28:56;7.20;;;4.30;;
25950;SDS011;13748;52.240;6.002;2023-05-18T03:31:23;7.10;;;3.67;;
25950;SDS011;13748;52.240;6.002;2023-05-18T03:33:51;6.10;;;3.97;;
25950;SDS011;13748;52.240;6.002;2023-05-18T03:36:17;7.37;;;3.63;;
25950;SDS011;13748;52.240;6.002;2023-05-18T03:38:47;5.77;;;3.77;;
25950;SDS011;13748;52.240;6.002;2023-05-18T03:41:16;9.40;;;3.40;;
25950;SDS011;13748;52.240;6.002;2023-05-18T03:43:43;7.30;;;4.20;;
25950;SDS011;13748;52.240;6.002;2023-05-18T03:46:10;7.87;;;3.90;;
25950;SDS011;13748;52.240;6.002;2023-05-18T03:48:37;5.63;;;3.50;;
25950;SDS011;13748;52.240;6.002;2023-05-18T03:51:04;6.23;;;4.03;;
25950;SDS011;13748;52.240;6.002;2023-05-18T03:53:31;7.50;;;3.73;;
25950;SDS011;13748;52.240;6.002;2023-05-18T03:55:59;6.53;;;4.20;;
25950;SDS011;13748;52.240;6.002;2023-05-18T03:58:25;6.77;;;3.67;;
25950;SDS011;13748;52.240;6.002;2023-05-18T04:00:52;10.67;;;4.10;;
25950;SDS011;13748;52.240;6.002;2023-05-18T04:03:19;6.13;;;3.70;;
25950;SDS011;13748;52.240;6.002;2023-05-18T04:05:46;11.23;;;4.10;;
25950;SDS011;13748;52.240;6.002;2023-05-18T04:08:15;6.33;;;3.50;;
25950;SDS011;13748;52.240;6.002;2023-05-18T04:10:42;8.70;;;4.20;;
25950;SDS011;13748;52.240;6.002;2023-05-18T04:13:09;4.83;;;3.63;;
25950;SDS011;13748;52.240;6.002;2023-05-18T04:15:37;12.27;;;4.20;;
25950;SDS011;13748;52.240;6.002;2023-05-18T04:18:04;5.93;;;3.60;;
25950;SDS011;13748;52.240;6.002;2023-05-18T04:20:31;8.53;;;3.87;;
25950;SDS011;13748;52.240;6.002;2023-05-18T04:22:57;11.60;;;4.30;;
25950;SDS011;13748;52.240;6.002;2023-05-18T04:25:25;9.87;;;4.40;;
25950;SDS011;13748;52.240;6.002;2023-05-18T04:27:54;8.67;;;4.20;;
25950;SDS011;13748;52.240;6.002;2023-05-18T04:30:21;9.60;;;4.00;;
25950;SDS011;13748;52.240;6.002;2023-05-18T04:32:49;7.47;;;3.87;;
25950;SDS011;13748;52.240;6.002;2023-05-18T04:35:16;7.63;;;4.10;;
25950;SDS011;13748;52.240;6.002;2023-05-18T04:37:43;7.17;;;4.10;;
25950;SDS011;13748;52.240;6.002;2023-05-18T04:40:10;7.03;;;3.77;;
25950;SDS011;13748;52.240;6.002;2023-05-18T04:42:39;5.90;;;4.17;;
25950;SDS011;13748;52.240;6.002;2023-05-18T04:45:11;8.43;;;4.00;;
25950;SDS011;13748;52.240;6.002;2023-05-18T04:47:48;10.50;;;3.93;;
25950;SDS011;13748;52.240;6.002;2023-05-18T04:50:19;16.07;;;4.73;;
25950;SDS011;13748;52.240;6.002;2023-05-18T04:52:49;8.43;;;4.23;;
25950;SDS011;13748;52.240;6.002;2023-05-18T04:55:17;8.07;;;4.00;;
25950;SDS011;13748;52.240;6.002;2023-05-18T04:57:53;8.37;;;3.83;;
25950;SDS011;13748;52.240;6.002;2023-05-18T05:00:22;7.50;;;3.63;;
25950;SDS011;13748;52.240;6.002;2023-05-18T05:02:51;8.13;;;4.27;;
25950;SDS011;13748;52.240;6.002;2023-05-18T05:05:19;6.67;;;4.00;;
25950;SDS011;13748;52.240;6.002;2023-05-18T05:07:48;9.40;;;3.33;;
25950;SDS011;13748;52.240;6.002;2023-05-18T05:10:19;8.90;;;4.00;;
25950;SDS011;13748;52.240;6.002;2023-05-18T05:12:47;7.63;;;4.30;;
25950;SDS011;13748;52.240;6.002;2023-05-18T05:15:15;5.53;;;3.53;;
25950;SDS011;13748;52.240;6.002;2023-05-18T05:17:42;7.30;;;3.83;;
25950;SDS011;13748;52.240;6.002;2023-05-18T05:20:09;8.70;;;4.20;;
25950;SDS011;13748;52.240;6.002;2023-05-18T05:22:36;8.00;;;3.80;;
25950;SDS011;13748;52.240;6.002;2023-05-18T05:25:03;9.90;;;4.30;;
25950;SDS011;13748;52.240;6.002;2023-05-18T05:27:31;8.90;;;4.00;;
25950;SDS011;13748;52.240;6.002;2023-05-18T05:29:58;6.63;;;3.73;;
25950;SDS011;13748;52.240;6.002;2023-05-18T05:32:25;6.67;;;3.60;;
25950;SDS011;13748;52.240;6.002;2023-05-18T05:34:52;7.73;;;3.70;;
25950;SDS011;13748;52.240;6.002;2023-05-18T05:37:19;9.47;;;4.13;;
25950;SDS011;13748;52.240;6.002;2023-05-18T05:39:46;9.30;;;4.17;;
25950;SDS011;13748;52.240;6.002;2023-05-18T05:42:13;8.33;;;4.10;;
25950;SDS011;13748;52.240;6.002;2023-05-18T05:44:40;10.30;;;3.90;;
25950;SDS011;13748;52.240;6.002;2023-05-18T05:47:07;6.90;;;3.60;;
25950;SDS011;13748;52.240;6.002;2023-05-18T05:49:35;5.37;;;3.30;;
25950;SDS011;13748;52.240;6.002;2023-05-18T05:52:02;9.43;;;3.20;;
25950;SDS011;13748;52.240;6.002;2023-05-18T05:54:29;5.50;;;3.07;;
25950;SDS011;13748;52.240;6.002;2023-05-18T05:56:56;8.00;;;3.20;;
25950;SDS011;13748;52.240;6.002;2023-05-18T05:59:23;8.03;;;3.10;;
25950;SDS011;13748;52.240;6.002;2023-05-18T06:01:49;8.10;;;3.23;;
25950;SDS011;13748;52.240;6.002;2023-05-18T06:04:16;7.93;;;2.93;;
25950;SDS011;13748;52.240;6.002;2023-05-18T06:06:43;5.17;;;3.00;;
25950;SDS011;13748;52.240;6.002;2023-05-18T06:09:10;5.90;;;2.73;;
25950;SDS011;13748;52.240;6.002;2023-05-18T06:11:37;8.20;;;3.30;;
25950;SDS011;13748;52.240;6.002;2023-05-18T06:14:04;6.10;;;2.53;;
25950;SDS011;13748;52.240;6.002;2023-05-18T06:16:31;9.95;;;2.58;;
25950;SDS011;13748;52.240;6.002;2023-05-18T06:18:58;5.35;;;2.53;;
25950;SDS011;13748;52.240;6.002;2023-05-18T06:21:25;5.78;;;2.55;;
25950;SDS011;13748;52.240;6.002;2023-05-18T06:23:52;5.13;;;2.38;;
25950;SDS011;13748;52.240;6.002;2023-05-18T06:26:19;4.05;;;2.20;;
25950;SDS011;13748;52.240;6.002;2023-05-18T06:28:48;3.38;;;1.88;;
25950;SDS011;13748;52.240;6.002;2023-05-18T06:31:15;7.78;;;2.58;;
25950;SDS011;13748;52.240;6.002;2023-05-18T06:33:44;6.93;;;2.00;;
25950;SDS011;13748;52.240;6.002;2023-05-18T06:36:11;6.10;;;2.05;;
25950;SDS011;13748;52.240;6.002;2023-05-18T06:38:37;7.70;;;2.20;;
25950;SDS011;13748;52.240;6.002;2023-05-18T06:41:04;4.60;;;2.20;;
25950;SDS011;13748;52.240;6.002;2023-05-18T06:43:31;5.38;;;2.08;;
25950;SDS011;13748;52.240;6.002;2023-05-18T06:45:58;5.47;;;2.13;;
25950;SDS011;13748;52.240;6.002;2023-05-18T06:48:26;3.60;;;2.15;;
25950;SDS011;13748;52.240;6.002;2023-05-18T06:50:53;4.75;;;2.30;;
25950;SDS011;13748;52.240;6.002;2023-05-18T06:53:21;6.20;;;2.50;;
25950;SDS011;13748;52.240;6.002;2023-05-18T06:55:48;8.80;;;2.58;;
25950;SDS011;13748;52.240;6.002;2023-05-18T06:58:15;5.57;;;2.35;;
25950;SDS011;13748;52.240;6.002;2023-05-18T07:00:42;4.97;;;2.17;;
25950;SDS011;13748;52.240;6.002;2023-05-18T07:03:09;7.35;;;2.17;;
25950;SDS011;13748;52.240;6.002;2023-05-18T07:05:36;5.85;;;2.20;;
25950;SDS011;13748;52.240;6.002;2023-05-18T07:08:05;4.40;;;1.95;;
25950;SDS011;13748;52.240;6.002;2023-05-18T07:10:32;4.85;;;1.85;;
25950;SDS011;13748;52.240;6.002;2023-05-18T07:13:00;3.92;;;1.75;;
25950;SDS011;13748;52.240;6.002;2023-05-18T07:15:27;6.15;;;1.90;;
25950;SDS011;13748;52.240;6.002;2023-05-18T07:17:55;5.70;;;1.75;;
25950;SDS011;13748;52.240;6.002;2023-05-18T07:20:22;7.50;;;1.90;;
25950;SDS011;13748;52.240;6.002;2023-05-18T07:22:51;4.18;;;1.85;;
25950;SDS011;13748;52.240;6.002;2023-05-18T07:25:20;6.07;;;2.05;;
25950;SDS011;13748;52.240;6.002;2023-05-18T07:27:48;6.30;;;1.83;;
25950;SDS011;13748;52.240;6.002;2023-05-18T07:30:17;4.38;;;2.17;;
25950;SDS011;13748;52.240;6.002;2023-05-18T07:32:44;6.82;;;1.98;;
25950;SDS011;13748;52.240;6.002;2023-05-18T07:35:11;6.32;;;1.88;;
25950;SDS011;13748;52.240;6.002;2023-05-18T07:37:38;7.20;;;2.10;;
25950;SDS011;13748;52.240;6.002;2023-05-18T07:40:11;7.97;;;2.03;;
25950;SDS011;13748;52.240;6.002;2023-05-18T07:42:38;6.25;;;2.17;;
25950;SDS011;13748;52.240;6.002;2023-05-18T07:45:06;6.20;;;2.10;;
25950;SDS011;13748;52.240;6.002;2023-05-18T07:47:33;8.70;;;2.45;;
25950;SDS011;13748;52.240;6.002;2023-05-18T07:50:01;6.18;;;1.77;;
25950;SDS011;13748;52.240;6.002;2023-05-18T07:52:28;6.05;;;2.00;;
25950;SDS011;13748;52.240;6.002;2023-05-18T07:54:56;3.47;;;1.85;;
25950;SDS011;13748;52.240;6.002;2023-05-18T07:57:23;6.90;;;2.30;;
25950;SDS011;13748;52.240;6.002;2023-05-18T07:59:50;6.38;;;2.17;;
25950;SDS011;13748;52.240;6.002;2023-05-18T08:02:17;4.10;;;1.75;;
25950;SDS011;13748;52.240;6.002;2023-05-18T08:04:46;6.18;;;2.25;;
25950;SDS011;13748;52.240;6.002;2023-05-18T08:07:13;2.80;;;1.48;;
25950;SDS011;13748;52.240;6.002;2023-05-18T08:09:40;5.22;;;2.00;;
25950;SDS011;13748;52.240;6.002;2023-05-18T08:12:07;6.47;;;2.08;;
25950;SDS011;13748;52.240;6.002;2023-05-18T08:14:34;8.10;;;2.08;;
25950;SDS011;13748;52.240;6.002;2023-05-18T08:17:02;7.47;;;2.13;;
25950;SDS011;13748;52.240;6.002;2023-05-18T08:19:30;7.57;;;1.98;;
25950;SDS011;13748;52.240;6.002;2023-05-18T08:21:57;5.47;;;1.92;;
25950;SDS011;13748;52.240;6.002;2023-05-18T08:24:23;5.93;;;1.95;;
25950;SDS011;13748;52.240;6.002;2023-05-18T08:26:50;5.72;;;2.03;;
25950;SDS011;13748;52.240;6.002;2023-05-18T08:29:17;7.80;;;2.00;;
25950;SDS011;13748;52.240;6.002;2023-05-18T08:31:44;5.35;;;2.05;;
25950;SDS011;13748;52.240;6.002;2023-05-18T08:34:14;5.97;;;2.30;;
25950;SDS011;13748;52.240;6.002;2023-05-18T08:36:41;6.72;;;2.15;;
25950;SDS011;13748;52.240;6.002;2023-05-18T08:39:11;6.75;;;2.22;;
25950;SDS011;13748;52.240;6.002;2023-05-18T08:41:54;7.07;;;2.25;;
25950;SDS011;13748;52.240;6.002;2023-05-18T08:47:28;4.93;;;1.88;;
25950;SDS011;13748;52.240;6.002;2023-05-18T08:49:56;5.03;;;2.35;;
25950;SDS011;13748;52.240;6.002;2023-05-18T08:52:27;4.95;;;1.80;;
25950;SDS011;13748;52.240;6.002;2023-05-18T08:55:01;5.72;;;2.28;;
25950;SDS011;13748;52.240;6.002;2023-05-18T08:57:33;5.50;;;2.13;;
25950;SDS011;13748;52.240;6.002;2023-05-18T09:00:02;4.03;;;2.20;;
25950;SDS011;13748;52.240;6.002;2023-05-18T09:02:31;5.13;;;2.10;;
25950;SDS011;13748;52.240;6.002;2023-05-18T09:04:59;4.57;;;2.10;;
25950;SDS011;13748;52.240;6.002;2023-05-18T09:07:26;6.22;;;1.90;;
25950;SDS011;13748;52.240;6.002;2023-05-18T09:09:54;5.72;;;2.03;;
25950;SDS011;13748;52.240;6.002;2023-05-18T09:12:22;10.88;;;2.10;;
25950;SDS011;13748;52.240;6.002;2023-05-18T09:14:51;7.30;;;2.28;;
25950;SDS011;13748;52.240;6.002;2023-05-18T09:17:19;3.83;;;1.80;;
25950;SDS011;13748;52.240;6.002;2023-05-18T09:19:48;4.63;;;1.90;;
25950;SDS011;13748;52.240;6.002;2023-05-18T09:22:15;6.00;;;2.60;;
25950;SDS011;13748;52.240;6.002;2023-05-18T09:24:42;4.63;;;1.90;;
25950;SDS011;13748;52.240;6.002;2023-05-18T09:27:09;4.10;;;2.13;;
25950;SDS011;13748;52.240;6.002;2023-05-18T09:29:36;5.57;;;2.10;;
25950;SDS011;13748;52.240;6.002;2023-05-18T09:32:23;7.13;;;2.40;;
25950;SDS011;13748;52.240;6.002;2023-05-18T09:34:52;7.40;;;2.65;;
25950;SDS011;13748;52.240;6.002;2023-05-18T09:37:20;3.83;;;1.95;;
25950;SDS011;13748;52.240;6.002;2023-05-18T09:39:57;7.72;;;2.10;;
25950;SDS011;13748;52.240;6.002;2023-05-18T09:42:28;6.20;;;2.10;;
25950;SDS011;13748;52.240;6.002;2023-05-18T09:45:20;6.20;;;2.13;;
25950;SDS011;13748;52.240;6.002;2023-05-18T09:47:52;6.65;;;2.20;;
25950;SDS011;13748;52.240;6.002;2023-05-18T09:50:20;5.22;;;2.05;;
25950;SDS011;13748;52.240;6.002;2023-05-18T09:52:47;4.25;;;2.00;;
25950;SDS011;13748;52.240;6.002;2023-05-18T09:55:16;6.63;;;1.95;;
25950;SDS011;13748;52.240;6.002;2023-05-18T09:57:47;7.10;;;2.17;;
25950;SDS011;13748;52.240;6.002;2023-05-18T10:00:15;6.95;;;2.30;;
25950;SDS011;13748;52.240;6.002;2023-05-18T10:02:45;6.03;;;2.08;;
25950;SDS011;13748;52.240;6.002;2023-05-18T10:05:20;5.57;;;2.40;;
25950;SDS011;13748;52.240;6.002;2023-05-18T10:07:49;5.97;;;2.30;;
25950;SDS011;13748;52.240;6.002;2023-05-18T10:10:17;5.03;;;2.28;;
25950;SDS011;13748;52.240;6.002;2023-05-18T10:12:46;5.35;;;2.00;;
25950;SDS011;13748;52.240;6.002;2023-05-18T10:15:16;5.57;;;2.50;;
25950;SDS011;13748;52.240;6.002;2023-05-18T10:17:45;7.38;;;2.35;;
25950;SDS011;13748;52.240;6.002;2023-05-18T10:20:14;5.00;;;2.35;;
25950;SDS011;13748;52.240;6.002;2023-05-18T10:22:46;6.20;;;2.20;;
25950;SDS011;13748;52.240;6.002;2023-05-18T10:25:15;6.38;;;2.47;;
25950;SDS011;13748;52.240;6.002;2023-05-18T10:27:45;8.27;;;2.47;;
25950;SDS011;13748;52.240;6.002;2023-05-18T10:30:14;7.05;;;2.30;;
25950;SDS011;13748;52.240;6.002;2023-05-18T10:32:43;5.88;;;2.20;;
25950;SDS011;13748;52.240;6.002;2023-05-18T10:35:11;5.47;;;2.30;;
25950;SDS011;13748;52.240;6.002;2023-05-18T10:37:40;3.40;;;2.20;;
25950;SDS011;13748;52.240;6.002;2023-05-18T10:40:13;4.03;;;2.30;;
25950;SDS011;13748;52.240;6.002;2023-05-18T10:42:42;4.40;;;2.30;;
25950;SDS011;13748;52.240;6.002;2023-05-18T10:45:11;4.30;;;2.78;;
25950;SDS011;13748;52.240;6.002;2023-05-18T10:47:38;5.00;;;2.35;;
25950;SDS011;13748;52.240;6.002;2023-05-18T10:50:08;6.72;;;2.85;;
25950;SDS011;13748;52.240;6.002;2023-05-18T10:52:35;9.30;;;2.78;;
25950;SDS011;13748;52.240;6.002;2023-05-18T10:55:03;6.40;;;2.83;;
25950;SDS011;13748;52.240;6.002;2023-05-18T10:57:43;6.13;;;2.70;;
25950;SDS011;13748;52.240;6.002;2023-05-18T11:00:14;5.38;;;2.70;;
25950;SDS011;13748;52.240;6.002;2023-05-18T11:02:42;6.07;;;2.50;;
25950;SDS011;13748;52.240;6.002;2023-05-18T11:05:10;3.92;;;2.35;;
25950;SDS011;13748;52.240;6.002;2023-05-18T11:07:37;4.32;;;2.13;;
25950;SDS011;13748;52.240;6.002;2023-05-18T11:10:08;5.57;;;2.70;;
25950;SDS011;13748;52.240;6.002;2023-05-18T11:12:36;5.85;;;2.40;;
25950;SDS011;13748;52.240;6.002;2023-05-18T11:15:05;4.55;;;2.22;;
25950;SDS011;13748;52.240;6.002;2023-05-18T11:17:33;6.18;;;2.35;;
25950;SDS011;13748;52.240;6.002;2023-05-18T11:27:51;4.82;;;2.40;;
25950;SDS011;13748;52.240;6.002;2023-05-18T11:30:26;5.07;;;2.20;;
25950;SDS011;13748;52.240;6.002;2023-05-18T11:41:31;4.75;;;2.10;;
25950;SDS011;13748;52.240;6.002;2023-05-18T11:49:31;5.38;;;2.50;;
25950;SDS011;13748;52.240;6.002;2023-05-18T11:54:33;8.48;;;3.47;;
25950;SDS011;13748;52.240;6.002;2023-05-18T11:57:03;8.55;;;2.70;;
25950;SDS011;13748;52.240;6.002;2023-05-18T12:02:05;9.60;;;3.13;;
25950;SDS011;13748;52.240;6.002;2023-05-18T12:04:47;5.40;;;2.70;;
25950;SDS011;13748;52.240;6.002;2023-05-18T12:07:19;6.90;;;2.70;;
25950;SDS011;13748;52.240;6.002;2023-05-18T12:10:37;3.63;;;2.17;;
25950;SDS011;13748;52.240;6.002;2023-05-18T12:13:12;4.88;;;2.53;;
25950;SDS011;13748;52.240;6.002;2023-05-18T12:16:39;7.03;;;2.65;;
25950;SDS011;13748;52.240;6.002;2023-05-18T12:19:24;3.95;;;2.65;;
25950;SDS011;13748;52.240;6.002;2023-05-18T12:22:01;6.93;;;2.75;;
25950;SDS011;13748;52.240;6.002;2023-05-18T12:24:29;3.88;;;2.38;;
25950;SDS011;13748;52.240;6.002;2023-05-18T12:26:56;9.20;;;3.20;;
25950;SDS011;13748;52.240;6.002;2023-05-18T12:29:33;7.55;;;2.72;;
25950;SDS011;13748;52.240;6.002;2023-05-18T12:32:04;11.45;;;2.88;;
25950;SDS011;13748;52.240;6.002;2023-05-18T12:34:32;5.25;;;2.35;;
25950;SDS011;13748;52.240;6.002;2023-05-18T12:36:59;4.13;;;2.25;;
25950;SDS011;13748;52.240;6.002;2023-05-18T12:39:26;5.53;;;3.10;;
25950;SDS011;13748;52.240;6.002;2023-05-18T12:42:06;4.50;;;2.22;;
25950;SDS011;13748;52.240;6.002;2023-05-18T12:44:37;6.30;;;2.80;;
25950;SDS011;13748;52.240;6.002;2023-05-18T12:47:04;4.97;;;2.50;;
25950;SDS011;13748;52.240;6.002;2023-05-18T12:49:34;4.78;;;2.45;;
25950;SDS011;13748;52.240;6.002;2023-05-18T12:52:09;5.85;;;2.05;;
25950;SDS011;13748;52.240;6.002;2023-05-18T12:54:46;5.60;;;2.40;;
25950;SDS011;13748;52.240;6.002;2023-05-18T12:57:21;3.17;;;1.73;;
25950;SDS011;13748;52.240;6.002;2023-05-18T12:59:52;6.30;;;2.20;;
25950;SDS011;13748;52.240;6.002;2023-05-18T13:02:26;5.65;;;2.45;;
25950;SDS011;13748;52.240;6.002;2023-05-18T13:05:04;6.88;;;2.55;;
25950;SDS011;13748;52.240;6.002;2023-05-18T13:07:36;4.55;;;2.30;;
25950;SDS011;13748;52.240;6.002;2023-05-18T13:10:11;6.63;;;2.50;;
25950;SDS011;13748;52.240;6.002;2023-05-18T13:15:17;5.30;;;2.10;;
25950;SDS011;13748;52.240;6.002;2023-05-18T13:17:58;5.85;;;2.10;;
25950;SDS011;13748;52.240;6.002;2023-05-18T13:20:36;5.90;;;2.17;;
25950;SDS011;13748;52.240;6.002;2023-05-18T13:23:06;5.72;;;2.22;;
25950;SDS011;13748;52.240;6.002;2023-05-18T13:25:41;5.65;;;2.00;;
25950;SDS011;13748;52.240;6.002;2023-05-18T13:28:09;7.95;;;2.05;;
25950;SDS011;13748;52.240;6.002;2023-05-18T13:30:37;3.33;;;1.90;;
25950;SDS011;13748;52.240;6.002;2023-05-18T13:33:05;5.07;;;1.75;;
25950;SDS011;13748;52.240;6.002;2023-05-18T13:35:35;4.82;;;2.05;;
25950;SDS011;13748;52.240;6.002;2023-05-18T13:38:02;5.22;;;2.30;;
25950;SDS011;13748;52.240;6.002;2023-05-18T13:40:30;4.90;;;2.20;;
25950;SDS011;13748;52.240;6.002;2023-05-18T13:42:57;4.90;;;1.92;;
25950;SDS011;13748;52.240;6.002;2023-05-18T13:45:23;3.85;;;2.10;;
25950;SDS011;13748;52.240;6.002;2023-05-18T13:47:50;5.82;;;2.25;;
25950;SDS011;13748;52.240;6.002;2023-05-18T13:50:19;3.92;;;1.70;;
25950;SDS011;13748;52.240;6.002;2023-05-18T13:52:46;4.28;;;2.20;;
25950;SDS011;13748;52.240;6.002;2023-05-18T13:55:14;6.82;;;2.22;;
25950;SDS011;13748;52.240;6.002;2023-05-18T13:57:43;4.30;;;2.55;;
25950;SDS011;13748;52.240;6.002;2023-05-18T14:00:16;5.30;;;2.03;;
25950;SDS011;13748;52.240;6.002;2023-05-18T14:02:46;6.35;;;2.40;;
25950;SDS011;13748;52.240;6.002;2023-05-18T14:05:14;7.43;;;2.63;;
25950;SDS011;13748;52.240;6.002;2023-05-18T14:07:41;5.63;;;2.40;;
25950;SDS011;13748;52.240;6.002;2023-05-18T14:10:12;6.10;;;2.47;;
25950;SDS011;13748;52.240;6.002;2023-05-18T14:12:39;4.97;;;2.35;;
25950;SDS011;13748;52.240;6.002;2023-05-18T14:15:09;6.28;;;2.13;;
25950;SDS011;13748;52.240;6.002;2023-05-18T14:17:37;5.32;;;2.35;;
25950;SDS011;13748;52.240;6.002;2023-05-18T14:20:04;5.68;;;2.42;;
25950;SDS011;13748;52.240;6.002;2023-05-18T14:22:32;4.80;;;2.60;;
25950;SDS011;13748;52.240;6.002;2023-05-18T14:24:59;6.85;;;2.50;;
25950;SDS011;13748;52.240;6.002;2023-05-18T14:27:27;5.82;;;2.38;;
25950;SDS011;13748;52.240;6.002;2023-05-18T14:29:54;5.05;;;2.42;;
25950;SDS011;13748;52.240;6.002;2023-05-18T14:32:23;6.65;;;2.47;;
25950;SDS011;13748;52.240;6.002;2023-05-18T14:34:51;6.55;;;2.40;;
25950;SDS011;13748;52.240;6.002;2023-05-18T14:37:20;4.82;;;2.38;;
25950;SDS011;13748;52.240;6.002;2023-05-18T14:39:49;5.43;;;1.88;;
25950;SDS011;13748;52.240;6.002;2023-05-18T14:42:16;7.22;;;2.58;;
25950;SDS011;13748;52.240;6.002;2023-05-18T14:44:43;4.70;;;2.38;;
25950;SDS011;13748;52.240;6.002;2023-05-18T14:47:10;3.72;;;2.10;;
25950;SDS011;13748;52.240;6.002;2023-05-18T14:49:37;6.75;;;2.38;;
25950;SDS011;13748;52.240;6.002;2023-05-18T14:52:04;5.18;;;2.50;;
25950;SDS011;13748;52.240;6.002;2023-05-18T14:54:31;7.15;;;2.50;;
25950;SDS011;13748;52.240;6.002;2023-05-18T14:56:58;5.80;;;3.00;;
25950;SDS011;13748;52.240;6.002;2023-05-18T14:59:26;4.97;;;2.70;;
25950;SDS011;13748;52.240;6.002;2023-05-18T15:01:53;5.15;;;2.75;;
25950;SDS011;13748;52.240;6.002;2023-05-18T15:04:20;5.00;;;2.40;;
25950;SDS011;13748;52.240;6.002;2023-05-18T15:06:47;5.63;;;2.38;;
25950;SDS011;13748;52.240;6.002;2023-05-18T15:09:15;5.97;;;2.70;;
25950;SDS011;13748;52.240;6.002;2023-05-18T15:11:42;7.00;;;2.83;;
25950;SDS011;13748;52.240;6.002;2023-05-18T15:14:09;5.32;;;2.40;;
25950;SDS011;13748;52.240;6.002;2023-05-18T15:16:36;5.68;;;2.97;;
25950;SDS011;13748;52.240;6.002;2023-05-18T15:19:04;4.63;;;2.40;;
25950;SDS011;13748;52.240;6.002;2023-05-18T15:21:31;5.45;;;2.35;;
25950;SDS011;13748;52.240;6.002;2023-05-18T15:23:58;3.88;;;2.30;;
25950;SDS011;13748;52.240;6.002;2023-05-18T15:26:24;6.00;;;2.53;;
25950;SDS011;13748;52.240;6.002;2023-05-18T15:28:52;6.82;;;4.40;;
25950;SDS011;13748;52.240;6.002;2023-05-18T15:31:18;12.93;;;8.52;;
25950;SDS011;13748;52.240;6.002;2023-05-18T15:33:45;9.38;;;3.60;;
25950;SDS011;13748;52.240;6.002;2023-05-18T15:36:13;8.80;;;4.45;;
25950;SDS011;13748;52.240;6.002;2023-05-18T15:38:41;7.38;;;3.40;;
25950;SDS011;13748;52.240;6.002;2023-05-18T15:41:08;5.10;;;2.78;;
25950;SDS011;13748;52.240;6.002;2023-05-18T15:43:34;11.35;;;3.45;;
25950;SDS011;13748;52.240;6.002;2023-05-18T15:46:04;6.05;;;2.67;;
25950;SDS011;13748;52.240;6.002;2023-05-18T15:48:31;7.75;;;3.45;;